sensor_id;sensor_type;location;lat;lon;timestamp;P1;durP1;ratioP1;P2;durP2;ratioP2
43626;SDS011;29217;52.586;13.442;2023-05-13T00:01:53;5.55;;;4.05;;
43626;SDS011;29217;52.586;13.442;2023-05-13T00:04:19;7.95;;;3.55;;
43626;SDS011;29217;52.586;13.442;2023-05-13T00:06:45;8.48;;;4.50;;
43626;SDS011;29217;52.586;13.442;2023-05-13T00:09:11;7.47;;;3.97;;
43626;SDS011;29217;52.586;13.442;2023-05-13T00:11:37;7.43;;;3.72;;
43626;SDS011;29217;52.586;13.442;2023-05-13T00:14:03;6.38;;;3.90;;
43626;SDS011;29217;52.586;13.442;2023-05-13T00:16:33;11.48;;;4.07;;
43626;SDS011;29217;52.586;13.442;2023-05-13T00:18:59;11.52;;;4.07;;
43626;SDS011;29217;52.586;13.442;2023-05-13T00:21:25;12.77;;;4.13;;
43626;SDS011;29217;52.586;13.442;2023-05-13T00:23:51;12.88;;;4.07;;
43626;SDS011;29217;52.586;13.442;2023-05-13T00:26:17;5.45;;;3.72;;
43626;SDS011;29217;52.586;13.442;2023-05-13T00:28:43;5.35;;;3.83;;
43626;SDS011;29217;52.586;13.442;2023-05-13T00:31:09;11.35;;;5.47;;
43626;SDS011;29217;52.586;13.442;2023-05-13T00:33:35;8.85;;;4.20;;
43626;SDS011;29217;52.586;13.442;2023-05-13T00:36:01;8.38;;;4.32;;
43626;SDS011;29217;52.586;13.442;2023-05-13T00:38:27;6.35;;;3.80;;
43626;SDS011;29217;52.586;13.442;2023-05-13T00:40:54;10.45;;;4.45;;
43626;SDS011;29217;52.586;13.442;2023-05-13T00:43:19;12.05;;;4.03;;
43626;SDS011;29217;52.586;13.442;2023-05-13T00:45:46;8.65;;;4.03;;
43626;SDS011;29217;52.586;13.442;2023-05-13T00:48:12;9.23;;;3.78;;
43626;SDS011;29217;52.586;13.442;2023-05-13T00:50:38;7.28;;;4.03;;
43626;SDS011;29217;52.586;13.442;2023-05-13T00:53:06;8.38;;;4.00;;
43626;SDS011;29217;52.586;13.442;2023-05-13T00:55:32;5.47;;;3.92;;
43626;SDS011;29217;52.586;13.442;2023-05-13T00:57:58;6.85;;;4.35;;
43626;SDS011;29217;52.586;13.442;2023-05-13T01:00:24;5.97;;;3.85;;
43626;SDS011;29217;52.586;13.442;2023-05-13T01:07:48;7.72;;;4.07;;
43626;SDS011;29217;52.586;13.442;2023-05-13T01:12:44;8.55;;;4.25;;
43626;SDS011;29217;52.586;13.442;2023-05-13T01:15:14;7.93;;;3.97;;
43626;SDS011;29217;52.586;13.442;2023-05-13T01:17:48;35.97;;;5.10;;
43626;SDS011;29217;52.586;13.442;2023-05-13T01:20:15;39.00;;;5.43;;
43626;SDS011;29217;52.586;13.442;2023-05-13T01:22:42;96.55;;;8.57;;
43626;SDS011;29217;52.586;13.442;2023-05-13T01:25:08;56.78;;;6.93;;
43626;SDS011;29217;52.586;13.442;2023-05-13T01:27:35;71.63;;;8.02;;
43626;SDS011;29217;52.586;13.442;2023-05-13T01:30:01;42.47;;;6.72;;
43626;SDS011;29217;52.586;13.442;2023-05-13T01:32:27;29.52;;;5.60;;
43626;SDS011;29217;52.586;13.442;2023-05-13T01:34:54;13.48;;;4.65;;
43626;SDS011;29217;52.586;13.442;2023-05-13T01:37:20;10.18;;;4.20;;
43626;SDS011;29217;52.586;13.442;2023-05-13T01:39:46;19.13;;;4.90;;
43626;SDS011;29217;52.586;13.442;2023-05-13T01:42:12;8.85;;;4.20;;
43626;SDS011;29217;52.586;13.442;2023-05-13T01:44:38;38.95;;;4.93;;
43626;SDS011;29217;52.586;13.442;2023-05-13T01:47:04;27.17;;;5.20;;
43626;SDS011;29217;52.586;13.442;2023-05-13T01:49:30;28.70;;;4.75;;
43626;SDS011;29217;52.586;13.442;2023-05-13T01:51:56;17.25;;;4.82;;
43626;SDS011;29217;52.586;13.442;2023-05-13T01:54:22;14.32;;;5.72;;
43626;SDS011;29217;52.586;13.442;2023-05-13T01:56:49;14.65;;;4.57;;
43626;SDS011;29217;52.586;13.442;2023-05-13T01:59:17;10.98;;;4.93;;
43626;SDS011;29217;52.586;13.442;2023-05-13T02:01:43;10.05;;;4.50;;
43626;SDS011;29217;52.586;13.442;2023-05-13T02:04:09;9.90;;;4.63;;
43626;SDS011;29217;52.586;13.442;2023-05-13T02:06:36;12.95;;;4.63;;
43626;SDS011;29217;52.586;13.442;2023-05-13T02:09:02;10.27;;;5.00;;
43626;SDS011;29217;52.586;13.442;2023-05-13T02:11:28;11.27;;;4.43;;
43626;SDS011;29217;52.586;13.442;2023-05-13T02:13:54;11.27;;;4.75;;
43626;SDS011;29217;52.586;13.442;2023-05-13T02:16:20;6.68;;;4.40;;
43626;SDS011;29217;52.586;13.442;2023-05-13T02:18:46;8.85;;;5.03;;
43626;SDS011;29217;52.586;13.442;2023-05-13T02:21:12;7.95;;;4.60;;
43626;SDS011;29217;52.586;13.442;2023-05-13T02:23:38;7.47;;;4.53;;
43626;SDS011;29217;52.586;13.442;2023-05-13T02:26:04;13.75;;;4.75;;
43626;SDS011;29217;52.586;13.442;2023-05-13T02:28:30;7.25;;;4.15;;
43626;SDS011;29217;52.586;13.442;2023-05-13T02:30:56;10.82;;;4.18;;
43626;SDS011;29217;52.586;13.442;2023-05-13T02:33:22;6.72;;;4.45;;
43626;SDS011;29217;52.586;13.442;2023-05-13T02:35:48;11.23;;;5.03;;
43626;SDS011;29217;52.586;13.442;2023-05-13T02:38:14;8.35;;;4.60;;
43626;SDS011;29217;52.586;13.442;2023-05-13T02:40:40;11.45;;;4.65;;
43626;SDS011;29217;52.586;13.442;2023-05-13T02:43:06;6.07;;;4.85;;
43626;SDS011;29217;52.586;13.442;2023-05-13T02:45:32;7.82;;;4.40;;
43626;SDS011;29217;52.586;13.442;2023-05-13T02:47:58;11.27;;;4.45;;
43626;SDS011;29217;52.586;13.442;2023-05-13T02:50:24;10.52;;;4.53;;
43626;SDS011;29217;52.586;13.442;2023-05-13T02:52:50;6.63;;;4.80;;
43626;SDS011;29217;52.586;13.442;2023-05-13T02:55:16;11.88;;;4.93;;
43626;SDS011;29217;52.586;13.442;2023-05-13T02:57:42;11.05;;;4.63;;
43626;SDS011;29217;52.586;13.442;2023-05-13T03:00:08;7.03;;;5.00;;
43626;SDS011;29217;52.586;13.442;2023-05-13T03:02:35;8.80;;;4.60;;
43626;SDS011;29217;52.586;13.442;2023-05-13T03:05:01;5.50;;;4.25;;
43626;SDS011;29217;52.586;13.442;2023-05-13T03:07:27;7.38;;;4.47;;
43626;SDS011;29217;52.586;13.442;2023-05-13T03:09:53;6.43;;;4.45;;
43626;SDS011;29217;52.586;13.442;2023-05-13T03:12:20;8.43;;;4.28;;
43626;SDS011;29217;52.586;13.442;2023-05-13T03:14:46;10.98;;;4.70;;
43626;SDS011;29217;52.586;13.442;2023-05-13T03:17:12;9.68;;;4.82;;
43626;SDS011;29217;52.586;13.442;2023-05-13T03:19:38;6.43;;;4.35;;
43626;SDS011;29217;52.586;13.442;2023-05-13T03:22:04;7.88;;;4.40;;
43626;SDS011;29217;52.586;13.442;2023-05-13T03:24:30;16.88;;;4.80;;
43626;SDS011;29217;52.586;13.442;2023-05-13T03:26:56;11.20;;;5.50;;
43626;SDS011;29217;52.586;13.442;2023-05-13T03:29:23;8.70;;;4.70;;
43626;SDS011;29217;52.586;13.442;2023-05-13T03:31:49;16.40;;;4.97;;
43626;SDS011;29217;52.586;13.442;2023-05-13T03:34:15;9.82;;;5.20;;
43626;SDS011;29217;52.586;13.442;2023-05-13T03:36:41;79.00;;;9.32;;
43626;SDS011;29217;52.586;13.442;2023-05-13T03:39:07;44.47;;;5.70;;
43626;SDS011;29217;52.586;13.442;2023-05-13T03:41:34;21.45;;;5.28;;
43626;SDS011;29217;52.586;13.442;2023-05-13T03:44:00;12.30;;;4.50;;
43626;SDS011;29217;52.586;13.442;2023-05-13T03:46:26;9.27;;;4.78;;
43626;SDS011;29217;52.586;13.442;2023-05-13T03:48:53;30.85;;;5.03;;
43626;SDS011;29217;52.586;13.442;2023-05-13T03:51:19;17.65;;;5.38;;
43626;SDS011;29217;52.586;13.442;2023-05-13T03:53:45;16.60;;;4.97;;
43626;SDS011;29217;52.586;13.442;2023-05-13T03:56:12;7.43;;;4.22;;
43626;SDS011;29217;52.586;13.442;2023-05-13T03:58:38;12.45;;;5.30;;
43626;SDS011;29217;52.586;13.442;2023-05-13T04:01:05;8.98;;;4.88;;
43626;SDS011;29217;52.586;13.442;2023-05-13T04:03:31;12.13;;;4.95;;
43626;SDS011;29217;52.586;13.442;2023-05-13T04:05:58;6.32;;;4.57;;
43626;SDS011;29217;52.586;13.442;2023-05-13T04:08:24;7.53;;;4.68;;
43626;SDS011;29217;52.586;13.442;2023-05-13T04:10:50;7.82;;;5.15;;
43626;SDS011;29217;52.586;13.442;2023-05-13T04:13:16;8.60;;;5.10;;
43626;SDS011;29217;52.586;13.442;2023-05-13T04:15:42;10.93;;;4.97;;
43626;SDS011;29217;52.586;13.442;2023-05-13T04:18:08;9.02;;;4.45;;
43626;SDS011;29217;52.586;13.442;2023-05-13T04:20:37;6.45;;;4.95;;
43626;SDS011;29217;52.586;13.442;2023-05-13T04:23:04;8.85;;;4.95;;
43626;SDS011;29217;52.586;13.442;2023-05-13T04:25:30;7.85;;;4.78;;
43626;SDS011;29217;52.586;13.442;2023-05-13T04:27:56;11.23;;;5.15;;
43626;SDS011;29217;52.586;13.442;2023-05-13T04:30:22;8.27;;;5.00;;
43626;SDS011;29217;52.586;13.442;2023-05-13T04:32:48;8.65;;;4.97;;
43626;SDS011;29217;52.586;13.442;2023-05-13T04:35:15;6.32;;;4.72;;
43626;SDS011;29217;52.586;13.442;2023-05-13T04:37:41;11.80;;;4.75;;
43626;SDS011;29217;52.586;13.442;2023-05-13T04:40:07;7.65;;;4.50;;
43626;SDS011;29217;52.586;13.442;2023-05-13T04:42:33;6.28;;;4.32;;
43626;SDS011;29217;52.586;13.442;2023-05-13T04:44:59;6.85;;;4.57;;
43626;SDS011;29217;52.586;13.442;2023-05-13T04:47:25;8.73;;;5.57;;
43626;SDS011;29217;52.586;13.442;2023-05-13T04:49:51;6.40;;;4.30;;
43626;SDS011;29217;52.586;13.442;2023-05-13T04:52:17;8.65;;;4.88;;
43626;SDS011;29217;52.586;13.442;2023-05-13T04:54:43;11.77;;;4.68;;
43626;SDS011;29217;52.586;13.442;2023-05-13T04:57:09;7.18;;;4.20;;
43626;SDS011;29217;52.586;13.442;2023-05-13T04:59:35;7.85;;;4.50;;
43626;SDS011;29217;52.586;13.442;2023-05-13T05:02:01;12.23;;;4.68;;
43626;SDS011;29217;52.586;13.442;2023-05-13T05:04:27;9.10;;;4.25;;
43626;SDS011;29217;52.586;13.442;2023-05-13T05:06:53;8.80;;;4.53;;
43626;SDS011;29217;52.586;13.442;2023-05-13T05:09:19;5.68;;;3.83;;
43626;SDS011;29217;52.586;13.442;2023-05-13T05:11:45;11.07;;;4.70;;
43626;SDS011;29217;52.586;13.442;2023-05-13T05:14:14;7.88;;;4.20;;
43626;SDS011;29217;52.586;13.442;2023-05-13T05:16:40;9.10;;;4.22;;
43626;SDS011;29217;52.586;13.442;2023-05-13T05:19:05;12.05;;;4.40;;
43626;SDS011;29217;52.586;13.442;2023-05-13T05:21:31;12.88;;;4.60;;
43626;SDS011;29217;52.586;13.442;2023-05-13T05:23:57;5.45;;;3.67;;
43626;SDS011;29217;52.586;13.442;2023-05-13T05:26:25;6.93;;;4.28;;
43626;SDS011;29217;52.586;13.442;2023-05-13T05:28:51;8.02;;;4.40;;
43626;SDS011;29217;52.586;13.442;2023-05-13T05:31:17;5.43;;;4.07;;
43626;SDS011;29217;52.586;13.442;2023-05-13T05:33:44;8.75;;;4.80;;
43626;SDS011;29217;52.586;13.442;2023-05-13T05:36:10;6.22;;;4.07;;
43626;SDS011;29217;52.586;13.442;2023-05-13T05:38:35;10.25;;;4.38;;
43626;SDS011;29217;52.586;13.442;2023-05-13T05:41:02;19.67;;;5.45;;
43626;SDS011;29217;52.586;13.442;2023-05-13T05:43:28;21.15;;;4.57;;
43626;SDS011;29217;52.586;13.442;2023-05-13T05:45:54;13.43;;;4.20;;
43626;SDS011;29217;52.586;13.442;2023-05-13T05:48:20;11.82;;;4.20;;
43626;SDS011;29217;52.586;13.442;2023-05-13T05:50:46;7.15;;;3.60;;
43626;SDS011;29217;52.586;13.442;2023-05-13T05:53:13;7.90;;;3.78;;
43626;SDS011;29217;52.586;13.442;2023-05-13T05:55:39;9.90;;;4.22;;
43626;SDS011;29217;52.586;13.442;2023-05-13T05:58:05;6.10;;;3.47;;
43626;SDS011;29217;52.586;13.442;2023-05-13T06:00:34;11.30;;;4.10;;
43626;SDS011;29217;52.586;13.442;2023-05-13T06:03:00;5.95;;;4.00;;
43626;SDS011;29217;52.586;13.442;2023-05-13T06:05:26;11.02;;;5.07;;
43626;SDS011;29217;52.586;13.442;2023-05-13T06:07:52;7.95;;;3.95;;
43626;SDS011;29217;52.586;13.442;2023-05-13T06:10:18;8.18;;;4.15;;
43626;SDS011;29217;52.586;13.442;2023-05-13T06:12:44;23.70;;;4.75;;
43626;SDS011;29217;52.586;13.442;2023-05-13T06:15:10;24.65;;;4.53;;
43626;SDS011;29217;52.586;13.442;2023-05-13T06:17:36;12.95;;;4.00;;
43626;SDS011;29217;52.586;13.442;2023-05-13T06:20:02;9.38;;;3.63;;
43626;SDS011;29217;52.586;13.442;2023-05-13T06:22:28;12.82;;;4.28;;
43626;SDS011;29217;52.586;13.442;2023-05-13T06:24:54;7.35;;;3.70;;
43626;SDS011;29217;52.586;13.442;2023-05-13T06:27:21;8.45;;;3.75;;
43626;SDS011;29217;52.586;13.442;2023-05-13T06:29:46;10.18;;;3.67;;
43626;SDS011;29217;52.586;13.442;2023-05-13T06:32:13;15.82;;;3.90;;
43626;SDS011;29217;52.586;13.442;2023-05-13T06:34:39;9.32;;;3.42;;
43626;SDS011;29217;52.586;13.442;2023-05-13T06:37:09;18.13;;;3.85;;
43626;SDS011;29217;52.586;13.442;2023-05-13T06:39:35;8.02;;;3.75;;
43626;SDS011;29217;52.586;13.442;2023-05-13T06:42:01;7.70;;;3.28;;
43626;SDS011;29217;52.586;13.442;2023-05-13T06:44:27;11.95;;;3.92;;
43626;SDS011;29217;52.586;13.442;2023-05-13T06:46:53;8.18;;;3.38;;
43626;SDS011;29217;52.586;13.442;2023-05-13T06:49:19;16.85;;;3.80;;
43626;SDS011;29217;52.586;13.442;2023-05-13T06:51:45;5.35;;;3.20;;
43626;SDS011;29217;52.586;13.442;2023-05-13T06:54:12;21.05;;;4.55;;
43626;SDS011;29217;52.586;13.442;2023-05-13T06:56:38;6.72;;;3.40;;
43626;SDS011;29217;52.586;13.442;2023-05-13T06:59:04;9.10;;;3.53;;
43626;SDS011;29217;52.586;13.442;2023-05-13T07:01:30;11.77;;;3.45;;
43626;SDS011;29217;52.586;13.442;2023-05-13T07:03:56;28.85;;;4.57;;
43626;SDS011;29217;52.586;13.442;2023-05-13T07:06:22;6.05;;;3.22;;
43626;SDS011;29217;52.586;13.442;2023-05-13T07:08:48;7.68;;;3.08;;
43626;SDS011;29217;52.586;13.442;2023-05-13T07:11:14;8.90;;;3.55;;
43626;SDS011;29217;52.586;13.442;2023-05-13T07:13:40;7.25;;;3.10;;
43626;SDS011;29217;52.586;13.442;2023-05-13T07:16:06;12.38;;;3.17;;
43626;SDS011;29217;52.586;13.442;2023-05-13T07:18:32;9.73;;;3.50;;
43626;SDS011;29217;52.586;13.442;2023-05-13T07:20:58;45.53;;;3.60;;
43626;SDS011;29217;52.586;13.442;2023-05-13T07:23:24;7.47;;;3.00;;
43626;SDS011;29217;52.586;13.442;2023-05-13T07:25:50;17.02;;;3.08;;
43626;SDS011;29217;52.586;13.442;2023-05-13T07:28:17;4.13;;;2.40;;
43626;SDS011;29217;52.586;13.442;2023-05-13T07:30:44;14.45;;;2.70;;
43626;SDS011;29217;52.586;13.442;2023-05-13T07:33:10;5.88;;;2.90;;
43626;SDS011;29217;52.586;13.442;2023-05-13T07:35:36;6.20;;;2.47;;
43626;SDS011;29217;52.586;13.442;2023-05-13T07:38:03;23.30;;;3.42;;
43626;SDS011;29217;52.586;13.442;2023-05-13T07:40:29;9.43;;;2.47;;
43626;SDS011;29217;52.586;13.442;2023-05-13T07:42:55;7.53;;;2.80;;
43626;SDS011;29217;52.586;13.442;2023-05-13T07:45:20;6.30;;;2.30;;
43626;SDS011;29217;52.586;13.442;2023-05-13T07:47:47;16.80;;;3.00;;
43626;SDS011;29217;52.586;13.442;2023-05-13T07:50:13;19.90;;;3.35;;
43626;SDS011;29217;52.586;13.442;2023-05-13T07:52:39;8.70;;;2.35;;
43626;SDS011;29217;52.586;13.442;2023-05-13T07:55:05;42.08;;;3.72;;
43626;SDS011;29217;52.586;13.442;2023-05-13T07:57:31;21.40;;;3.03;;
43626;SDS011;29217;52.586;13.442;2023-05-13T07:59:57;26.83;;;3.13;;
43626;SDS011;29217;52.586;13.442;2023-05-13T08:02:23;17.58;;;2.85;;
43626;SDS011;29217;52.586;13.442;2023-05-13T08:04:49;41.72;;;4.10;;
43626;SDS011;29217;52.586;13.442;2023-05-13T08:07:15;11.50;;;2.15;;
43626;SDS011;29217;52.586;13.442;2023-05-13T08:09:41;11.77;;;2.97;;
43626;SDS011;29217;52.586;13.442;2023-05-13T08:12:07;10.95;;;3.75;;
43626;SDS011;29217;52.586;13.442;2023-05-13T08:14:33;13.68;;;2.88;;
43626;SDS011;29217;52.586;13.442;2023-05-13T08:16:59;4.38;;;2.20;;
43626;SDS011;29217;52.586;13.442;2023-05-13T08:19:25;22.13;;;2.88;;
43626;SDS011;29217;52.586;13.442;2023-05-13T08:21:51;6.07;;;2.20;;
43626;SDS011;29217;52.586;13.442;2023-05-13T08:24:17;8.18;;;2.60;;
43626;SDS011;29217;52.586;13.442;2023-05-13T08:26:43;12.85;;;2.53;;
43626;SDS011;29217;52.586;13.442;2023-05-13T08:29:09;4.55;;;2.20;;
43626;SDS011;29217;52.586;13.442;2023-05-13T08:31:38;5.03;;;2.17;;
43626;SDS011;29217;52.586;13.442;2023-05-13T08:34:04;4.38;;;2.40;;
43626;SDS011;29217;52.586;13.442;2023-05-13T08:36:30;7.78;;;2.83;;
43626;SDS011;29217;52.586;13.442;2023-05-13T08:38:56;10.32;;;2.67;;
43626;SDS011;29217;52.586;13.442;2023-05-13T08:41:22;5.75;;;2.22;;
43626;SDS011;29217;52.586;13.442;2023-05-13T08:43:48;7.88;;;2.28;;
43626;SDS011;29217;52.586;13.442;2023-05-13T08:46:15;9.75;;;3.33;;
43626;SDS011;29217;52.586;13.442;2023-05-13T08:48:41;15.05;;;3.00;;
43626;SDS011;29217;52.586;13.442;2023-05-13T08:51:07;7.95;;;2.08;;
43626;SDS011;29217;52.586;13.442;2023-05-13T08:53:34;10.05;;;2.50;;
43626;SDS011;29217;52.586;13.442;2023-05-13T08:56:00;5.45;;;2.30;;
43626;SDS011;29217;52.586;13.442;2023-05-13T08:58:26;5.95;;;2.38;;
43626;SDS011;29217;52.586;13.442;2023-05-13T09:00:52;9.52;;;2.28;;
43626;SDS011;29217;52.586;13.442;2023-05-13T09:03:19;10.40;;;2.17;;
43626;SDS011;29217;52.586;13.442;2023-05-13T09:05:45;9.38;;;2.60;;
43626;SDS011;29217;52.586;13.442;2023-05-13T09:08:12;38.35;;;3.40;;
43626;SDS011;29217;52.586;13.442;2023-05-13T09:10:38;11.95;;;2.60;;
43626;SDS011;29217;52.586;13.442;2023-05-13T09:13:04;12.75;;;2.60;;
43626;SDS011;29217;52.586;13.442;2023-05-13T09:15:31;6.18;;;2.40;;
43626;SDS011;29217;52.586;13.442;2023-05-13T09:17:58;12.65;;;2.97;;
43626;SDS011;29217;52.586;13.442;2023-05-13T09:20:24;6.75;;;2.42;;
43626;SDS011;29217;52.586;13.442;2023-05-13T09:23:04;8.35;;;2.53;;
43626;SDS011;29217;52.586;13.442;2023-05-13T09:25:31;8.50;;;1.98;;
43626;SDS011;29217;52.586;13.442;2023-05-13T09:27:58;6.60;;;2.67;;
43626;SDS011;29217;52.586;13.442;2023-05-13T09:30:26;12.00;;;2.53;;
43626;SDS011;29217;52.586;13.442;2023-05-13T09:35:35;6.00;;;2.47;;
43626;SDS011;29217;52.586;13.442;2023-05-13T09:38:01;7.45;;;2.50;;
43626;SDS011;29217;52.586;13.442;2023-05-13T09:40:36;12.43;;;2.67;;
43626;SDS011;29217;52.586;13.442;2023-05-13T09:43:03;9.85;;;2.35;;
43626;SDS011;29217;52.586;13.442;2023-05-13T09:45:31;5.88;;;2.20;;
43626;SDS011;29217;52.586;13.442;2023-05-13T09:47:57;16.60;;;2.33;;
43626;SDS011;29217;52.586;13.442;2023-05-13T09:50:23;6.95;;;2.50;;
43626;SDS011;29217;52.586;13.442;2023-05-13T09:52:49;10.38;;;2.95;;
43626;SDS011;29217;52.586;13.442;2023-05-13T09:55:15;6.78;;;2.10;;
43626;SDS011;29217;52.586;13.442;2023-05-13T09:57:41;4.53;;;2.33;;
43626;SDS011;29217;52.586;13.442;2023-05-13T10:00:07;9.45;;;2.00;;
43626;SDS011;29217;52.586;13.442;2023-05-13T10:02:33;6.88;;;2.42;;
43626;SDS011;29217;52.586;13.442;2023-05-13T10:05:00;23.08;;;3.40;;
43626;SDS011;29217;52.586;13.442;2023-05-13T10:07:26;14.27;;;2.50;;
43626;SDS011;29217;52.586;13.442;2023-05-13T10:09:54;14.88;;;2.72;;
43626;SDS011;29217;52.586;13.442;2023-05-13T10:12:23;42.28;;;3.88;;
43626;SDS011;29217;52.586;13.442;2023-05-13T10:14:51;51.22;;;3.85;;
43626;SDS011;29217;52.586;13.442;2023-05-13T10:17:18;6.68;;;2.35;;
43626;SDS011;29217;52.586;13.442;2023-05-13T10:19:44;18.58;;;3.20;;
43626;SDS011;29217;52.586;13.442;2023-05-13T10:22:10;30.05;;;2.95;;
43626;SDS011;29217;52.586;13.442;2023-05-13T10:24:36;14.38;;;2.55;;
43626;SDS011;29217;52.586;13.442;2023-05-13T10:27:03;29.38;;;2.88;;
43626;SDS011;29217;52.586;13.442;2023-05-13T10:29:31;21.95;;;3.30;;
43626;SDS011;29217;52.586;13.442;2023-05-13T10:31:58;11.70;;;2.42;;
43626;SDS011;29217;52.586;13.442;2023-05-13T10:34:25;40.45;;;3.72;;
43626;SDS011;29217;52.586;13.442;2023-05-13T10:36:56;4.05;;;2.30;;
43626;SDS011;29217;52.586;13.442;2023-05-13T10:44:41;9.05;;;1.95;;
43626;SDS011;29217;52.586;13.442;2023-05-13T10:47:08;11.70;;;2.33;;
43626;SDS011;29217;52.586;13.442;2023-05-13T10:49:35;5.03;;;2.10;;
43626;SDS011;29217;52.586;13.442;2023-05-13T10:52:05;4.43;;;1.95;;
43626;SDS011;29217;52.586;13.442;2023-05-13T10:54:38;12.75;;;2.22;;
43626;SDS011;29217;52.586;13.442;2023-05-13T10:57:05;29.88;;;3.10;;
43626;SDS011;29217;52.586;13.442;2023-05-13T10:59:32;9.25;;;2.38;;
43626;SDS011;29217;52.586;13.442;2023-05-13T11:02:00;10.32;;;1.90;;
43626;SDS011;29217;52.586;13.442;2023-05-13T11:04:27;12.18;;;2.38;;
43626;SDS011;29217;52.586;13.442;2023-05-13T11:06:53;13.85;;;2.20;;
43626;SDS011;29217;52.586;13.442;2023-05-13T11:11:46;9.43;;;2.25;;
43626;SDS011;29217;52.586;13.442;2023-05-13T11:17:16;8.90;;;2.08;;
43626;SDS011;29217;52.586;13.442;2023-05-13T11:19:34;27.10;;;3.22;;
43626;SDS011;29217;52.586;13.442;2023-05-13T11:22:07;15.07;;;2.10;;
43626;SDS011;29217;52.586;13.442;2023-05-13T11:24:34;11.00;;;2.10;;
43626;SDS011;29217;52.586;13.442;2023-05-13T11:27:11;11.45;;;2.17;;
43626;SDS011;29217;52.586;13.442;2023-05-13T11:29:40;11.07;;;2.08;;
43626;SDS011;29217;52.586;13.442;2023-05-13T11:32:12;6.68;;;1.92;;
43626;SDS011;29217;52.586;13.442;2023-05-13T11:34:38;7.47;;;1.85;;
43626;SDS011;29217;52.586;13.442;2023-05-13T11:37:14;6.20;;;2.25;;
43626;SDS011;29217;52.586;13.442;2023-05-13T11:39:40;7.72;;;2.10;;
43626;SDS011;29217;52.586;13.442;2023-05-13T11:42:07;28.15;;;2.45;;
43626;SDS011;29217;52.586;13.442;2023-05-13T11:44:33;16.73;;;2.17;;
43626;SDS011;29217;52.586;13.442;2023-05-13T11:47:00;12.55;;;2.10;;
43626;SDS011;29217;52.586;13.442;2023-05-13T11:49:33;9.98;;;2.25;;
43626;SDS011;29217;52.586;13.442;2023-05-13T11:52:03;6.28;;;2.10;;
43626;SDS011;29217;52.586;13.442;2023-05-13T11:54:29;12.20;;;2.03;;
43626;SDS011;29217;52.586;13.442;2023-05-13T11:56:55;18.10;;;2.33;;
43626;SDS011;29217;52.586;13.442;2023-05-13T11:59:22;10.52;;;1.58;;
43626;SDS011;29217;52.586;13.442;2023-05-13T12:02:09;16.40;;;2.05;;
43626;SDS011;29217;52.586;13.442;2023-05-13T12:04:34;5.90;;;1.92;;
43626;SDS011;29217;52.586;13.442;2023-05-13T12:07:00;2.58;;;1.70;;
43626;SDS011;29217;52.586;13.442;2023-05-13T12:09:26;29.88;;;2.80;;
43626;SDS011;29217;52.586;13.442;2023-05-13T12:11:52;4.55;;;1.95;;
43626;SDS011;29217;52.586;13.442;2023-05-13T12:14:19;4.35;;;1.83;;
43626;SDS011;29217;52.586;13.442;2023-05-13T12:16:45;2.75;;;1.70;;
43626;SDS011;29217;52.586;13.442;2023-05-13T12:19:11;4.88;;;1.98;;
43626;SDS011;29217;52.586;13.442;2023-05-13T12:21:37;7.03;;;1.33;;
43626;SDS011;29217;52.586;13.442;2023-05-13T12:24:16;2.88;;;1.65;;
43626;SDS011;29217;52.586;13.442;2023-05-13T12:26:42;29.13;;;2.83;;
43626;SDS011;29217;52.586;13.442;2023-05-13T12:29:08;17.48;;;2.30;;
43626;SDS011;29217;52.586;13.442;2023-05-13T12:31:34;12.73;;;2.20;;
43626;SDS011;29217;52.586;13.442;2023-05-13T12:34:00;8.40;;;2.92;;
43626;SDS011;29217;52.586;13.442;2023-05-13T12:36:27;12.50;;;2.40;;
43626;SDS011;29217;52.586;13.442;2023-05-13T12:39:00;9.60;;;2.10;;
43626;SDS011;29217;52.586;13.442;2023-05-13T12:41:33;19.10;;;2.63;;
43626;SDS011;29217;52.586;13.442;2023-05-13T12:44:03;12.15;;;2.88;;
43626;SDS011;29217;52.586;13.442;2023-05-13T12:46:32;20.35;;;2.25;;
43626;SDS011;29217;52.586;13.442;2023-05-13T12:48:59;3.25;;;2.10;;
43626;SDS011;29217;52.586;13.442;2023-05-13T12:51:25;11.27;;;1.80;;
43626;SDS011;29217;52.586;13.442;2023-05-13T12:53:52;6.70;;;1.80;;
43626;SDS011;29217;52.586;13.442;2023-05-13T12:56:19;17.30;;;2.15;;
43626;SDS011;29217;52.586;13.442;2023-05-13T12:58:46;5.50;;;1.80;;
43626;SDS011;29217;52.586;13.442;2023-05-13T13:01:12;8.30;;;2.20;;
43626;SDS011;29217;52.586;13.442;2023-05-13T13:03:38;14.20;;;1.98;;
43626;SDS011;29217;52.586;13.442;2023-05-13T13:06:04;9.15;;;2.40;;
43626;SDS011;29217;52.586;13.442;2023-05-13T13:08:30;11.80;;;2.38;;
43626;SDS011;29217;52.586;13.442;2023-05-13T13:10:57;7.70;;;1.90;;
43626;SDS011;29217;52.586;13.442;2023-05-13T13:13:24;12.80;;;2.63;;
43626;SDS011;29217;52.586;13.442;2023-05-13T13:15:50;17.98;;;2.60;;
43626;SDS011;29217;52.586;13.442;2023-05-13T13:18:17;10.25;;;2.28;;
43626;SDS011;29217;52.586;13.442;2023-05-13T13:20:43;22.92;;;3.33;;
43626;SDS011;29217;52.586;13.442;2023-05-13T13:23:09;19.65;;;2.72;;
43626;SDS011;29217;52.586;13.442;2023-05-13T13:25:35;7.53;;;2.33;;
43626;SDS011;29217;52.586;13.442;2023-05-13T13:28:01;11.38;;;2.30;;
43626;SDS011;29217;52.586;13.442;2023-05-13T13:30:27;4.72;;;2.10;;
43626;SDS011;29217;52.586;13.442;2023-05-13T13:32:53;13.45;;;2.17;;
43626;SDS011;29217;52.586;13.442;2023-05-13T13:35:19;10.48;;;1.90;;
43626;SDS011;29217;52.586;13.442;2023-05-13T13:37:45;9.07;;;2.50;;
43626;SDS011;29217;52.586;13.442;2023-05-13T13:40:11;4.40;;;2.28;;
43626;SDS011;29217;52.586;13.442;2023-05-13T13:42:37;5.40;;;2.42;;
43626;SDS011;29217;52.586;13.442;2023-05-13T13:45:03;5.05;;;2.13;;
43626;SDS011;29217;52.586;13.442;2023-05-13T13:47:30;3.67;;;1.80;;
43626;SDS011;29217;52.586;13.442;2023-05-13T13:49:56;12.32;;;2.30;;
43626;SDS011;29217;52.586;13.442;2023-05-13T13:52:22;5.45;;;1.98;;
43626;SDS011;29217;52.586;13.442;2023-05-13T13:54:50;10.10;;;1.90;;
43626;SDS011;29217;52.586;13.442;2023-05-13T13:57:16;23.50;;;2.42;;
43626;SDS011;29217;52.586;13.442;2023-05-13T13:59:42;3.58;;;1.80;;
43626;SDS011;29217;52.586;13.442;2023-05-13T14:02:08;5.75;;;2.42;;
43626;SDS011;29217;52.586;13.442;2023-05-13T14:04:34;15.50;;;2.20;;
43626;SDS011;29217;52.586;13.442;2023-05-13T14:07:00;3.10;;;2.03;;
43626;SDS011;29217;52.586;13.442;2023-05-13T14:09:26;12.52;;;2.58;;
43626;SDS011;29217;52.586;13.442;2023-05-13T14:11:53;21.20;;;2.72;;
43626;SDS011;29217;52.586;13.442;2023-05-13T14:14:19;6.88;;;2.50;;
43626;SDS011;29217;52.586;13.442;2023-05-13T14:16:45;11.48;;;2.40;;
43626;SDS011;29217;52.586;13.442;2023-05-13T14:19:11;6.60;;;2.47;;
43626;SDS011;29217;52.586;13.442;2023-05-13T14:21:37;11.63;;;2.33;;
43626;SDS011;29217;52.586;13.442;2023-05-13T14:24:03;11.70;;;2.20;;
43626;SDS011;29217;52.586;13.442;2023-05-13T14:26:29;16.08;;;2.28;;
43626;SDS011;29217;52.586;13.442;2023-05-13T14:28:55;5.72;;;1.98;;
43626;SDS011;29217;52.586;13.442;2023-05-13T14:31:21;11.70;;;2.40;;
43626;SDS011;29217;52.586;13.442;2023-05-13T14:33:48;4.70;;;2.13;;
43626;SDS011;29217;52.586;13.442;2023-05-13T14:36:14;3.58;;;2.30;;
43626;SDS011;29217;52.586;13.442;2023-05-13T14:38:41;6.63;;;2.30;;
43626;SDS011;29217;52.586;13.442;2023-05-13T14:41:08;35.05;;;3.78;;
43626;SDS011;29217;52.586;13.442;2023-05-13T14:43:34;9.20;;;2.20;;
43626;SDS011;29217;52.586;13.442;2023-05-13T14:46:00;9.93;;;2.55;;